Webcam & Weather

This webcam image will automatically refresh every 15 seconds.


METAR and TAF for EGLL Heathrow (12 Nautical Miles East of White Waltham)

METAR FOR EGLL (Issued: Tue, March 28th 2017 5:50 AM UTC):
EGLL 280550Z AUTO 08003KT 1900 BR NCD 07/06 Q1019

TAF FOR EGLL (Issued: Tue, March 28th 2017 6:15 AM UTC):
TAF TAF EGLL 280459Z 2806/2912 08004KT 1500 BR BKN004 TEMPO 2806/2808 0400 FG BKN001 PROB30 TEMPO 2806/2808 SCT004 BECMG 2807/2810 22010KT 9999 NSW SCT030 PROB30 TEMPO 2810/2817 23015G25KT 7000 SHRA BKN014 BKN030CB BECMG 2822/2901 BKN010 TEMPO 2900/2909 6000 -RADZ BKN007 BECMG 2910/2912 BKN018

Play 24 hour timelapse | Play 30 day timelapse

Comments are closed.